createdAt,value
2018-07-12T00:01:10.634Z,9.43
2018-07-12T00:03:38.776Z,8.97
2018-07-12T00:06:06.909Z,9.20
2018-07-12T00:08:35.037Z,8.90
2018-07-12T00:11:03.436Z,8.50
2018-07-12T00:13:31.479Z,10.03
2018-07-12T00:15:59.595Z,9.47
2018-07-12T00:18:27.708Z,10.10
2018-07-12T00:20:55.799Z,9.23
2018-07-12T00:23:23.935Z,8.83
2018-07-12T00:25:52.035Z,9.53
2018-07-12T00:28:20.182Z,9.73
2018-07-12T00:30:48.407Z,7.57
2018-07-12T00:33:16.547Z,8.43
2018-07-12T00:35:44.643Z,8.10
2018-07-12T00:38:12.735Z,7.80
2018-07-12T00:40:40.876Z,8.30
2018-07-12T00:43:08.951Z,7.80
2018-07-12T00:45:37.088Z,7.63
2018-07-12T00:48:05.232Z,8.70
2018-07-12T00:50:33.395Z,7.87
2018-07-12T00:53:01.519Z,8.40
2018-07-12T00:55:29.630Z,7.33
2018-07-12T00:57:57.728Z,8.07
2018-07-12T01:00:25.856Z,8.03
2018-07-12T01:02:53.961Z,7.87
2018-07-12T01:05:25.057Z,8.40
2018-07-12T01:07:53.156Z,8.20
2018-07-12T01:10:21.603Z,7.73
2018-07-12T01:12:49.664Z,8.33
2018-07-12T01:15:17.804Z,7.37
2018-07-12T01:17:45.925Z,8.23
2018-07-12T01:20:14.067Z,8.20
2018-07-12T01:22:42.220Z,8.17
2018-07-12T01:25:10.638Z,8.10
2018-07-12T01:27:38.699Z,8.63
2018-07-12T01:30:06.787Z,8.77
2018-07-12T01:32:34.930Z,7.93
2018-07-12T01:35:02.999Z,7.97
2018-07-12T01:37:31.130Z,8.13
2018-07-12T01:39:59.217Z,7.17
2018-07-12T01:42:27.481Z,6.93
2018-07-12T01:44:55.576Z,7.67
2018-07-12T01:47:23.688Z,7.13
2018-07-12T01:49:51.787Z,6.93
2018-07-12T01:52:20.177Z,8.33
2018-07-12T01:54:48.196Z,7.87
2018-07-12T01:57:16.359Z,7.50
2018-07-12T01:59:44.468Z,7.13
2018-07-12T02:02:12.600Z,7.90
2018-07-12T02:04:40.726Z,7.60
2018-07-12T02:07:08.867Z,7.10
2018-07-12T02:09:36.972Z,7.40
2018-07-12T02:12:06.113Z,7.77
2018-07-12T02:14:34.203Z,6.43
2018-07-12T02:17:02.453Z,6.80
2018-07-12T02:19:30.498Z,7.10
2018-07-12T02:21:58.591Z,6.80
2018-07-12T02:24:26.716Z,7.30
2018-07-12T02:26:54.810Z,7.50
2018-07-12T02:29:22.956Z,7.47
2018-07-12T02:31:51.077Z,8.17
2018-07-12T02:34:19.196Z,8.13
2018-07-12T02:36:47.303Z,7.73
2018-07-12T02:39:15.449Z,8.07
2018-07-12T02:41:44.542Z,8.23
2018-07-12T02:44:12.775Z,7.47
2018-07-12T02:46:40.864Z,7.53
2018-07-12T02:49:08.977Z,7.77
2018-07-12T02:51:37.133Z,8.07
2018-07-12T02:54:05.515Z,8.20
2018-07-12T02:56:33.499Z,8.80
2018-07-12T02:59:01.712Z,7.37
2018-07-12T03:01:29.832Z,8.67
2018-07-12T03:03:57.991Z,8.67
2018-07-12T03:06:26.187Z,8.40
2018-07-12T03:08:54.321Z,8.97
2018-07-12T03:11:22.434Z,7.80
2018-07-12T03:13:50.563Z,8.20
2018-07-12T03:16:18.700Z,7.80
2018-07-12T03:18:46.784Z,7.67
2018-07-12T03:21:14.930Z,9.03
2018-07-12T03:23:43.495Z,8.20
2018-07-12T03:26:12.022Z,8.40
2018-07-12T03:28:40.436Z,9.37
2018-07-12T03:31:08.558Z,8.53
2018-07-12T03:33:36.679Z,9.60
2018-07-12T03:36:04.799Z,7.87
2018-07-12T03:38:32.882Z,8.17
2018-07-12T03:41:01.045Z,8.63
2018-07-12T03:43:29.130Z,7.33
2018-07-12T03:45:57.297Z,8.57
2018-07-12T03:48:25.387Z,8.03
2018-07-12T03:50:53.532Z,7.90
2018-07-12T03:53:21.648Z,7.57
2018-07-12T03:55:49.773Z,8.13
2018-07-12T03:58:17.895Z,9.90
2018-07-12T04:00:46.034Z,9.60
2018-07-12T04:03:14.209Z,10.80
2018-07-12T04:05:42.295Z,10.60
2018-07-12T04:08:10.535Z,9.13
2018-07-12T04:10:38.646Z,11.80
2018-07-12T04:13:06.790Z,11.90
2018-07-12T04:15:34.925Z,11.87
2018-07-12T04:18:03.028Z,11.53
2018-07-12T04:20:31.165Z,13.63
2018-07-12T04:22:59.310Z,13.30
2018-07-12T04:25:27.436Z,13.00
2018-07-12T04:27:55.580Z,14.03
2018-07-12T04:30:23.691Z,15.50
2018-07-12T04:32:51.807Z,14.00
2018-07-12T04:35:19.947Z,15.00
2018-07-12T04:37:48.125Z,15.57
2018-07-12T04:40:16.243Z,15.27
2018-07-12T04:42:49.093Z,13.57
2018-07-12T04:45:17.209Z,14.80
2018-07-12T04:47:45.578Z,17.07
2018-07-12T04:50:13.606Z,16.93
2018-07-12T04:52:42.549Z,17.83
2018-07-12T04:55:10.677Z,20.20
2018-07-12T04:57:38.798Z,20.53
2018-07-12T05:00:07.429Z,19.70
2018-07-12T05:02:35.535Z,19.57
2018-07-12T05:05:03.656Z,19.67
2018-07-12T05:07:31.773Z,19.63
2018-07-12T05:09:59.892Z,19.47
2018-07-12T05:12:28.075Z,21.90
2018-07-12T05:14:56.232Z,24.33
2018-07-12T05:17:24.325Z,23.70
2018-07-12T05:19:52.487Z,20.37
2018-07-12T05:22:20.735Z,24.27
2018-07-12T05:24:48.883Z,23.43
2018-07-12T05:27:17.238Z,23.37
2018-07-12T05:29:45.324Z,20.60
2018-07-12T05:32:13.445Z,19.37
2018-07-12T05:34:41.607Z,19.90
2018-07-12T05:37:10.988Z,19.43
2018-07-12T05:39:40.416Z,21.37
2018-07-12T05:42:09.800Z,22.50
2018-07-12T05:44:39.175Z,21.73
2018-07-12T05:47:08.552Z,21.70
2018-07-12T05:49:37.969Z,22.87
2018-07-12T05:52:07.346Z,22.83
2018-07-12T05:54:37.400Z,23.87
2018-07-12T05:57:06.763Z,21.90
2018-07-12T05:59:36.176Z,20.13
2018-07-12T06:02:15.373Z,21.23
2018-07-12T06:04:44.419Z,19.40
2018-07-12T06:07:13.804Z,20.53
2018-07-12T06:09:43.187Z,18.20
2018-07-12T06:12:12.552Z,17.93
2018-07-12T06:14:41.905Z,16.80
2018-07-12T06:17:11.328Z,16.67
2018-07-12T06:19:40.723Z,16.10
2018-07-12T06:22:10.168Z,17.63
2018-07-12T06:24:39.584Z,18.93
2018-07-12T06:27:09.011Z,14.77
2018-07-12T06:29:38.944Z,15.13
2018-07-12T06:32:08.369Z,16.40
2018-07-12T06:34:37.684Z,16.03
2018-07-12T06:37:07.114Z,17.43
2018-07-12T06:39:36.464Z,17.30
2018-07-12T06:42:05.902Z,17.13
2018-07-12T06:44:35.231Z,14.73
2018-07-12T06:47:04.636Z,14.83
2018-07-12T06:49:33.971Z,18.03
2018-07-12T06:52:03.350Z,16.37
2018-07-12T06:54:32.715Z,16.50
2018-07-12T06:57:02.112Z,16.10
2018-07-12T06:59:31.471Z,16.83
2018-07-12T07:02:00.817Z,15.93
2018-07-12T07:04:30.172Z,17.43
2018-07-12T07:06:59.615Z,18.13
2018-07-12T07:09:28.979Z,15.30
2018-07-12T07:11:58.363Z,15.63
2018-07-12T07:14:27.747Z,16.10
2018-07-12T07:16:57.136Z,15.40
2018-07-12T07:19:26.524Z,13.23
2018-07-12T07:21:55.922Z,13.33
2018-07-12T07:24:25.322Z,13.20
2018-07-12T07:26:54.693Z,13.70
2018-07-12T07:29:24.095Z,13.70
2018-07-12T07:31:53.484Z,14.63
2018-07-12T07:34:23.349Z,14.70
2018-07-12T07:36:52.716Z,13.00
2018-07-12T07:39:22.082Z,14.70
2018-07-12T07:41:51.499Z,14.03
2018-07-12T07:44:20.907Z,14.60
2018-07-12T07:46:50.264Z,12.97
2018-07-12T07:49:19.695Z,13.83
2018-07-12T07:51:49.011Z,14.20
2018-07-12T07:54:18.609Z,12.00
2018-07-12T07:56:48.026Z,14.00
2018-07-12T07:59:17.406Z,13.87
2018-07-12T08:01:47.486Z,12.50
2018-07-12T08:04:16.844Z,13.97
2018-07-12T08:06:46.273Z,12.97
2018-07-12T08:09:15.599Z,13.03
2018-07-12T08:11:44.976Z,13.10
2018-07-12T08:14:14.335Z,13.30
2018-07-12T08:16:43.342Z,12.93
2018-07-12T08:19:12.601Z,13.20
2018-07-12T08:21:42.009Z,14.13
2018-07-12T08:24:11.360Z,12.80
2018-07-12T08:26:40.753Z,10.70
2018-07-12T08:29:10.117Z,10.23
2018-07-12T08:31:39.518Z,11.67
2018-07-12T08:34:08.904Z,13.37
2018-07-12T08:36:38.296Z,12.80
2018-07-12T08:39:07.696Z,12.17
2018-07-12T08:41:37.060Z,11.70
2018-07-12T08:44:06.383Z,10.00
2018-07-12T08:46:35.781Z,11.70
2018-07-12T08:49:05.152Z,12.47
2018-07-12T08:51:34.544Z,11.57
2018-07-12T08:54:03.898Z,9.37
2018-07-12T08:56:33.281Z,8.97
2018-07-12T08:59:02.614Z,9.10
2018-07-12T09:01:32.046Z,8.27
2018-07-12T09:04:01.412Z,8.27
2018-07-12T09:06:30.831Z,7.67
2018-07-12T09:09:00.187Z,7.30
2018-07-12T09:11:29.544Z,5.80
2018-07-12T09:13:58.988Z,6.53
2018-07-12T09:16:28.324Z,6.27
2018-07-12T09:18:57.808Z,7.17
2018-07-12T09:21:27.155Z,7.67
2018-07-12T09:23:56.545Z,7.10
2018-07-12T09:26:25.896Z,5.97
2018-07-12T09:28:55.342Z,6.37
2018-07-12T09:31:24.643Z,6.57
2018-07-12T09:33:54.035Z,5.47
2018-07-12T09:36:23.435Z,4.70
2018-07-12T09:38:53.215Z,5.10
2018-07-12T09:41:23.705Z,4.67
2018-07-12T09:43:53.302Z,4.40
2018-07-12T09:46:22.661Z,4.90
2018-07-12T09:48:52.960Z,4.87
2018-07-12T09:51:22.355Z,4.30
2018-07-12T09:53:51.730Z,4.30
2018-07-12T09:56:21.187Z,4.70
2018-07-12T09:58:50.601Z,3.93
2018-07-12T10:01:25.217Z,4.40
2018-07-12T10:03:54.903Z,4.20
2018-07-12T10:06:30.507Z,4.50
2018-07-12T10:09:05.052Z,4.97
2018-07-12T10:11:39.546Z,3.70
2018-07-12T10:14:13.951Z,4.00
2018-07-12T10:16:45.389Z,3.73
2018-07-12T10:19:14.754Z,4.47
2018-07-12T10:21:44.135Z,3.80
2018-07-12T10:24:13.520Z,4.53
2018-07-12T10:26:42.846Z,3.93
2018-07-12T10:29:12.188Z,4.70
2018-07-12T10:31:41.579Z,4.03
2018-07-12T10:34:10.920Z,5.23
2018-07-12T10:36:40.320Z,4.87
2018-07-12T10:39:10.885Z,4.00
2018-07-12T10:41:40.440Z,4.07
2018-07-12T10:44:09.820Z,3.60
2018-07-12T10:46:39.335Z,3.53
2018-07-12T10:49:08.671Z,5.50
2018-07-12T10:51:38.115Z,3.30
2018-07-12T10:54:07.497Z,4.90
2018-07-12T10:56:36.876Z,4.57
2018-07-12T10:59:06.468Z,4.70
2018-07-12T11:01:35.861Z,5.10
2018-07-12T11:04:05.268Z,4.37
2018-07-12T11:06:34.691Z,5.10
2018-07-12T11:09:04.774Z,4.27
2018-07-12T11:11:34.157Z,3.70
2018-07-12T11:14:04.072Z,3.90
2018-07-12T11:16:33.459Z,3.90
2018-07-12T11:19:02.788Z,3.70
2018-07-12T11:21:32.164Z,3.20
2018-07-12T11:24:01.531Z,3.87
2018-07-12T11:26:30.940Z,3.60
2018-07-12T11:29:00.260Z,3.67
2018-07-12T11:31:29.613Z,4.17
2018-07-12T11:33:59.004Z,3.00
2018-07-12T11:36:28.429Z,3.50
2018-07-12T11:38:57.795Z,3.33
2018-07-12T11:41:27.157Z,3.13
2018-07-12T11:43:56.559Z,4.23
2018-07-12T11:46:25.891Z,4.03
2018-07-12T11:48:55.300Z,22.10
2018-07-12T11:51:24.663Z,5.20
2018-07-12T11:53:53.658Z,4.70
2018-07-12T11:56:22.922Z,4.23
2018-07-12T11:58:52.330Z,3.90
2018-07-12T12:01:21.757Z,4.33
2018-07-12T12:03:51.144Z,3.60
2018-07-12T12:06:20.575Z,3.20
2018-07-12T12:08:50.456Z,2.77
2018-07-12T12:11:19.833Z,3.10
2018-07-12T12:13:49.821Z,2.70
2018-07-12T12:16:19.164Z,3.53
2018-07-12T12:18:48.500Z,2.80
2018-07-12T12:21:17.853Z,3.33
2018-07-12T12:23:47.195Z,3.20
2018-07-12T12:26:16.541Z,3.80
2018-07-12T12:28:45.881Z,3.23
2018-07-12T12:31:15.246Z,2.93
2018-07-12T12:33:44.573Z,2.90
2018-07-12T12:36:14.091Z,2.90
2018-07-12T12:38:43.447Z,3.10
2018-07-12T12:41:12.855Z,3.00
2018-07-12T12:43:42.289Z,3.23
2018-07-12T12:46:11.647Z,3.20
2018-07-12T12:48:40.992Z,2.53
2018-07-12T12:51:10.391Z,4.23
2018-07-12T12:53:39.691Z,2.70
2018-07-12T12:56:09.063Z,2.90
2018-07-12T12:58:38.404Z,2.80
2018-07-12T13:01:07.888Z,2.90
2018-07-12T13:03:37.201Z,3.10
2018-07-12T13:06:07.172Z,2.60
2018-07-12T13:08:36.499Z,3.20
2018-07-12T13:11:05.919Z,3.23
2018-07-12T13:13:35.296Z,3.20
2018-07-12T13:16:04.637Z,2.83
2018-07-12T13:18:34.013Z,3.73
2018-07-12T13:21:03.403Z,3.47
2018-07-12T13:23:32.765Z,3.17
2018-07-12T13:26:02.128Z,2.83
2018-07-12T13:28:31.516Z,3.33
2018-07-12T13:31:00.859Z,3.17
2018-07-12T13:33:30.268Z,2.80
2018-07-12T13:35:59.634Z,3.20
2018-07-12T13:38:29.008Z,2.70
2018-07-12T13:40:58.392Z,3.03
2018-07-12T13:43:27.774Z,3.43
2018-07-12T13:45:57.099Z,3.10
2018-07-12T13:48:26.478Z,2.73
2018-07-12T13:50:55.820Z,3.17
2018-07-12T13:53:25.209Z,2.93
2018-07-12T13:55:54.187Z,3.37
2018-07-12T13:58:23.464Z,2.73
2018-07-12T14:00:52.868Z,3.50
2018-07-12T14:03:22.273Z,2.80
2018-07-12T14:05:51.673Z,2.40
2018-07-12T14:08:21.189Z,3.07
2018-07-12T14:10:50.532Z,2.60
2018-07-12T14:13:19.844Z,3.70
2018-07-12T14:15:49.202Z,2.70
2018-07-12T14:18:18.518Z,2.80
2018-07-12T14:20:47.892Z,2.90
2018-07-12T14:23:16.873Z,2.33
2018-07-12T14:25:46.179Z,2.30
2018-07-12T14:28:15.542Z,3.00
2018-07-12T14:30:45.000Z,3.03
2018-07-12T14:33:14.352Z,2.57
2018-07-12T14:35:43.759Z,2.80
2018-07-12T14:38:13.176Z,3.00
2018-07-12T14:40:42.544Z,2.73
2018-07-12T14:43:11.943Z,3.30
2018-07-12T14:45:41.319Z,3.30
2018-07-12T14:48:10.629Z,3.17
2018-07-12T14:50:39.995Z,5.17
2018-07-12T14:53:09.326Z,3.40
2018-07-12T14:55:38.776Z,32.13
2018-07-12T14:58:08.458Z,5.23
2018-07-12T15:00:37.972Z,7.10
2018-07-12T15:03:07.297Z,6.83
2018-07-12T15:05:36.708Z,3.93
2018-07-12T15:08:06.156Z,3.67
2018-07-12T15:10:35.608Z,4.30
2018-07-12T15:13:04.951Z,4.17
2018-07-12T15:15:34.368Z,5.50
2018-07-12T15:18:03.716Z,3.40
2018-07-12T15:20:33.104Z,6.03
2018-07-12T15:23:02.454Z,3.10
2018-07-12T15:25:31.904Z,5.20
2018-07-12T15:28:01.324Z,4.13
2018-07-12T15:30:30.611Z,4.70
2018-07-12T15:32:59.995Z,21.67
2018-07-12T15:35:29.005Z,6.67
2018-07-12T15:37:58.264Z,6.80
2018-07-12T15:40:27.643Z,6.07
2018-07-12T15:42:57.018Z,3.20
2018-07-12T15:45:26.315Z,3.67
2018-07-12T15:47:55.708Z,2.83
2018-07-12T15:50:26.518Z,3.70
2018-07-12T15:52:56.256Z,2.93
2018-07-12T15:55:25.612Z,3.30
2018-07-12T15:57:55.012Z,2.87
2018-07-12T16:00:24.352Z,3.27
2018-07-12T16:02:53.748Z,3.30
2018-07-12T16:05:23.119Z,3.73
2018-07-12T16:07:52.518Z,3.10
2018-07-12T16:10:21.865Z,2.87
2018-07-12T16:12:51.231Z,3.40
2018-07-12T16:15:20.578Z,3.50
2018-07-12T16:17:49.956Z,4.30
2018-07-12T16:20:19.316Z,5.27
2018-07-12T16:22:48.680Z,3.93
2018-07-12T16:25:18.063Z,3.20
2018-07-12T16:27:47.520Z,2.63
2018-07-12T16:30:16.896Z,3.03
2018-07-12T16:32:46.255Z,3.10
2018-07-12T16:35:15.640Z,2.90
2018-07-12T16:37:45.019Z,3.40
2018-07-12T16:40:15.283Z,3.20
2018-07-12T16:42:45.548Z,3.40
2018-07-12T16:45:15.868Z,2.73
2018-07-12T16:47:45.236Z,2.90
2018-07-12T16:50:14.619Z,2.90
2018-07-12T16:52:44.001Z,2.87
2018-07-12T16:55:13.704Z,3.07
2018-07-12T16:57:43.056Z,3.17
2018-07-12T17:00:12.462Z,2.90
2018-07-12T17:02:41.820Z,3.03
2018-07-12T17:05:11.236Z,4.30
2018-07-12T17:07:41.074Z,3.37
2018-07-12T17:10:10.391Z,3.20
2018-07-12T17:12:39.358Z,2.70
2018-07-12T17:15:08.697Z,2.87
2018-07-12T17:17:38.052Z,2.80
2018-07-12T17:20:07.403Z,2.67
2018-07-12T17:22:36.744Z,2.97
2018-07-12T17:25:06.072Z,2.87
2018-07-12T17:27:35.425Z,2.83
2018-07-12T17:30:04.875Z,2.53
2018-07-12T17:32:34.230Z,2.90
2018-07-12T17:35:03.558Z,3.00
2018-07-12T17:37:32.978Z,3.17
2018-07-12T17:40:02.287Z,2.90
2018-07-12T17:42:31.398Z,2.90
2018-07-12T17:45:00.619Z,4.90
2018-07-12T17:47:30.115Z,3.17
2018-07-12T17:49:59.380Z,2.67
2018-07-12T17:52:28.761Z,2.17
2018-07-12T17:54:58.091Z,3.50
2018-07-12T17:57:27.437Z,4.13
2018-07-12T17:59:56.787Z,2.50
2018-07-12T18:02:26.568Z,3.20
2018-07-12T18:04:55.936Z,3.10
2018-07-12T18:07:25.325Z,2.50
2018-07-12T18:09:54.658Z,2.40
2018-07-12T18:12:24.531Z,2.87
2018-07-12T18:14:54.244Z,2.80
2018-07-12T18:17:23.663Z,2.77
2018-07-12T18:19:52.668Z,2.60
2018-07-12T18:22:21.983Z,2.80
2018-07-12T18:24:51.344Z,3.37
2018-07-12T18:27:20.680Z,3.87
2018-07-12T18:29:50.056Z,3.30
2018-07-12T18:32:19.447Z,3.30
2018-07-12T18:34:48.918Z,3.00
2018-07-12T18:37:18.188Z,3.43
2018-07-12T18:39:47.603Z,3.33
2018-07-12T18:42:17.059Z,2.90
2018-07-12T18:44:46.408Z,3.20
2018-07-12T18:47:15.746Z,3.37
2018-07-12T18:49:45.107Z,3.40
2018-07-12T18:52:14.487Z,3.20
2018-07-12T18:54:43.895Z,3.90
2018-07-12T18:57:13.376Z,3.63
2018-07-12T18:59:42.729Z,3.63
2018-07-12T19:02:12.063Z,3.77
2018-07-12T19:04:41.745Z,3.73
2018-07-12T19:07:11.247Z,2.90
2018-07-12T19:09:40.637Z,2.70
2018-07-12T19:12:09.987Z,2.80
2018-07-12T19:14:38.958Z,3.03
2018-07-12T19:17:08.168Z,2.90
2018-07-12T19:19:37.575Z,2.80
2018-07-12T19:22:07.000Z,3.30
2018-07-12T19:24:36.310Z,3.17
2018-07-12T19:27:05.705Z,3.83
2018-07-12T19:29:35.056Z,3.60
2018-07-12T19:32:04.484Z,4.07
2018-07-12T19:34:33.871Z,3.80
2018-07-12T19:37:03.256Z,3.17
2018-07-12T19:39:32.600Z,3.37
2018-07-12T19:42:01.980Z,2.87
2018-07-12T19:44:31.355Z,2.80
2018-07-12T19:47:01.189Z,3.07
2018-07-12T19:49:30.588Z,3.50
2018-07-12T19:52:00.020Z,4.00
2018-07-12T19:54:29.617Z,3.33
2018-07-12T19:56:59.388Z,3.20
2018-07-12T19:59:28.378Z,3.50
2018-07-12T20:01:57.745Z,3.17
2018-07-12T20:04:27.148Z,3.07
2018-07-12T20:06:56.560Z,3.07
2018-07-12T20:09:25.896Z,3.33
2018-07-12T20:11:55.363Z,3.20
2018-07-12T20:14:24.720Z,3.13
2018-07-12T20:16:54.084Z,3.63
2018-07-12T20:19:23.449Z,4.40
2018-07-12T20:21:52.984Z,3.73
2018-07-12T20:24:22.355Z,3.30
2018-07-12T20:26:52.241Z,2.93
2018-07-12T20:29:21.651Z,4.30
2018-07-12T20:31:50.980Z,4.30
2018-07-12T20:34:20.357Z,3.70
2018-07-12T20:36:49.732Z,3.50
2018-07-12T20:39:19.118Z,4.03
2018-07-12T20:41:48.514Z,4.17
2018-07-12T20:44:17.896Z,3.67
2018-07-12T20:46:47.315Z,3.37
2018-07-12T20:49:16.674Z,4.37
2018-07-12T20:51:46.901Z,4.77
2018-07-12T20:54:16.343Z,3.67
2018-07-12T20:56:45.697Z,3.57
2018-07-12T20:59:15.065Z,3.87
2018-07-12T21:01:44.444Z,5.53
2018-07-12T21:04:13.947Z,6.73
2018-07-12T21:06:43.332Z,4.43
2018-07-12T21:09:12.731Z,3.80
2018-07-12T21:11:42.107Z,4.20
2018-07-12T21:14:11.563Z,4.20
2018-07-12T21:16:40.899Z,4.23
2018-07-12T21:19:10.309Z,3.80
2018-07-12T21:21:39.671Z,4.23
2018-07-12T21:24:09.030Z,3.67
2018-07-12T21:26:38.625Z,3.17
2018-07-12T21:29:07.962Z,3.60
2018-07-12T21:31:37.382Z,4.00
2018-07-12T21:34:06.740Z,4.40
2018-07-12T21:36:36.115Z,6.80
2018-07-12T21:39:08.024Z,11.10
2018-07-12T21:41:37.751Z,4.63
2018-07-12T21:44:07.164Z,4.23
2018-07-12T21:46:36.594Z,4.20
2018-07-12T21:49:05.936Z,4.47
2018-07-12T21:51:35.435Z,4.90
2018-07-12T21:54:04.368Z,4.27
2018-07-12T21:56:33.631Z,5.10
2018-07-12T21:59:02.574Z,4.80
2018-07-12T22:01:31.839Z,4.53
2018-07-12T22:04:01.196Z,4.87
2018-07-12T22:06:35.760Z,4.27
2018-07-12T22:09:07.258Z,4.47
2018-07-12T22:11:36.623Z,4.90
2018-07-12T22:14:06.014Z,4.10
2018-07-12T22:16:35.399Z,4.10
2018-07-12T22:19:04.748Z,4.77
2018-07-12T22:21:34.281Z,4.37
2018-07-12T22:24:03.631Z,4.00
2018-07-12T22:26:32.975Z,4.00
2018-07-12T22:29:02.347Z,4.10
2018-07-12T22:31:31.687Z,4.40
2018-07-12T22:34:01.080Z,4.33
2018-07-12T22:36:30.428Z,4.60
2018-07-12T22:38:59.804Z,4.50
2018-07-12T22:41:29.169Z,4.37
2018-07-12T22:43:58.539Z,4.77
2018-07-12T22:46:28.355Z,4.03
2018-07-12T22:48:57.826Z,4.50
2018-07-12T22:51:27.127Z,4.73
2018-07-12T22:53:56.526Z,4.60
2018-07-12T22:56:25.908Z,4.60
2018-07-12T22:58:55.293Z,4.50
2018-07-12T23:01:25.239Z,4.30
2018-07-12T23:03:54.535Z,4.03
2018-07-12T23:06:23.920Z,4.97
2018-07-12T23:08:53.302Z,4.80
2018-07-12T23:11:22.668Z,4.60
2018-07-12T23:13:52.038Z,5.40
2018-07-12T23:16:21.404Z,4.57
2018-07-12T23:18:50.764Z,5.07
2018-07-12T23:21:21.224Z,5.40
2018-07-12T23:23:50.616Z,4.40
2018-07-12T23:26:19.972Z,4.43
2018-07-12T23:28:49.346Z,4.70
2018-07-12T23:31:18.678Z,4.47
2018-07-12T23:33:48.043Z,5.03
2018-07-12T23:36:17.439Z,5.50
2018-07-12T23:38:46.419Z,4.67
2018-07-12T23:41:16.258Z,5.23
2018-07-12T23:43:46.020Z,5.17
2018-07-12T23:46:15.409Z,4.30
2018-07-12T23:48:44.791Z,4.83
2018-07-12T23:51:15.336Z,4.80
2018-07-12T23:53:45.103Z,5.40
2018-07-12T23:56:14.496Z,4.80
2018-07-12T23:58:43.836Z,5.83
